sensor_id;sensor_type;location;lat;lon;timestamp;pressure;altitude;pressure_sealevel;temperature;humidity
71735;BME280;59577;52.122;5.406;2023-03-15T00:01:46;101244.41;;;1.89;88.50
71735;BME280;59577;52.122;5.406;2023-03-15T00:04:13;101256.16;;;1.88;89.12
71735;BME280;59577;52.122;5.406;2023-03-15T00:06:39;101250.03;;;1.87;89.40
71735;BME280;59577;52.122;5.406;2023-03-15T00:09:06;101255.16;;;1.84;89.19
71735;BME280;59577;52.122;5.406;2023-03-15T00:11:32;101259.47;;;1.75;89.59
71735;BME280;59577;52.122;5.406;2023-03-15T00:14:05;101257.44;;;1.66;89.79
71735;BME280;59577;52.122;5.406;2023-03-15T00:16:32;101263.56;;;1.67;90.14
71735;BME280;59577;52.122;5.406;2023-03-15T00:18:59;101256.94;;;1.64;90.44
71735;BME280;59577;52.122;5.406;2023-03-15T00:21:25;101244.69;;;1.58;90.57
71735;BME280;59577;52.122;5.406;2023-03-15T00:23:55;101247.19;;;1.49;90.96
71735;BME280;59577;52.122;5.406;2023-03-15T00:26:31;101247.41;;;1.53;91.24
71735;BME280;59577;52.122;5.406;2023-03-15T00:28:58;101255.94;;;1.55;91.48
71735;BME280;59577;52.122;5.406;2023-03-15T00:31:24;101255.38;;;1.58;91.55
71735;BME280;59577;52.122;5.406;2023-03-15T00:33:52;101260.94;;;1.62;91.52
71735;BME280;59577;52.122;5.406;2023-03-15T00:36:23;101260.19;;;1.56;91.66
71735;BME280;59577;52.122;5.406;2023-03-15T00:38:52;101254.34;;;1.54;92.18
71735;BME280;59577;52.122;5.406;2023-03-15T00:41:20;101266.59;;;1.55;92.04
71735;BME280;59577;52.122;5.406;2023-03-15T00:43:52;101258.59;;;1.55;92.01
71735;BME280;59577;52.122;5.406;2023-03-15T00:46:19;101258.13;;;1.48;92.43
71735;BME280;59577;52.122;5.406;2023-03-15T00:48:48;101264.31;;;1.38;92.55
71735;BME280;59577;52.122;5.406;2023-03-15T00:51:16;101268.88;;;1.38;92.58
71735;BME280;59577;52.122;5.406;2023-03-15T00:53:45;101269.19;;;1.31;92.98
71735;BME280;59577;52.122;5.406;2023-03-15T00:56:15;101276.44;;;1.25;93.08
71735;BME280;59577;52.122;5.406;2023-03-15T00:58:42;101278.56;;;1.28;93.50
71735;BME280;59577;52.122;5.406;2023-03-15T01:01:11;101273.50;;;1.27;93.43
71735;BME280;59577;52.122;5.406;2023-03-15T01:03:39;101276.47;;;1.20;93.51
71735;BME280;59577;52.122;5.406;2023-03-15T01:06:25;101287.38;;;1.24;93.85
71735;BME280;59577;52.122;5.406;2023-03-15T01:08:52;101290.81;;;1.24;93.98
71735;BME280;59577;52.122;5.406;2023-03-15T01:11:23;101301.50;;;1.24;94.10
71735;BME280;59577;52.122;5.406;2023-03-15T01:13:52;101308.44;;;1.25;93.96
71735;BME280;59577;52.122;5.406;2023-03-15T01:16:20;101299.91;;;1.23;93.70
71735;BME280;59577;52.122;5.406;2023-03-15T01:18:50;101299.13;;;1.18;94.16
71735;BME280;59577;52.122;5.406;2023-03-15T01:21:18;101308.47;;;1.20;94.22
71735;BME280;59577;52.122;5.406;2023-03-15T01:23:44;101303.13;;;1.20;94.17
71735;BME280;59577;52.122;5.406;2023-03-15T01:26:13;101304.75;;;1.21;94.19
71735;BME280;59577;52.122;5.406;2023-03-15T01:28:40;101317.00;;;1.17;94.39
71735;BME280;59577;52.122;5.406;2023-03-15T01:33:44;101320.75;;;1.16;94.84
71735;BME280;59577;52.122;5.406;2023-03-15T01:36:11;101322.09;;;1.13;94.95
71735;BME280;59577;52.122;5.406;2023-03-15T01:38:38;101323.69;;;1.15;94.91
71735;BME280;59577;52.122;5.406;2023-03-15T01:41:05;101323.94;;;1.18;94.88
71735;BME280;59577;52.122;5.406;2023-03-15T01:43:31;101326.59;;;1.23;94.85
71735;BME280;59577;52.122;5.406;2023-03-15T01:48:29;101322.78;;;1.29;95.20
71735;BME280;59577;52.122;5.406;2023-03-15T01:51:02;101336.09;;;1.35;94.90
71735;BME280;59577;52.122;5.406;2023-03-15T01:53:31;101330.25;;;1.33;94.92
71735;BME280;59577;52.122;5.406;2023-03-15T01:56:00;101336.13;;;1.29;94.95
71735;BME280;59577;52.122;5.406;2023-03-15T01:58:27;101341.47;;;1.29;95.37
71735;BME280;59577;52.122;5.406;2023-03-15T02:00:59;101336.69;;;1.26;95.10
71735;BME280;59577;52.122;5.406;2023-03-15T02:03:35;101334.56;;;1.28;95.32
71735;BME280;59577;52.122;5.406;2023-03-15T02:06:06;101344.41;;;1.28;95.34
71735;BME280;59577;52.122;5.406;2023-03-15T02:08:41;101348.41;;;1.30;95.18
71735;BME280;59577;52.122;5.406;2023-03-15T02:11:10;101350.56;;;1.28;95.29
71735;BME280;59577;52.122;5.406;2023-03-15T02:13:37;101351.34;;;1.29;95.31
71735;BME280;59577;52.122;5.406;2023-03-15T02:16:04;101350.03;;;1.26;95.47
71735;BME280;59577;52.122;5.406;2023-03-15T02:18:32;101346.56;;;1.21;95.31
71735;BME280;59577;52.122;5.406;2023-03-15T02:23:32;101358.34;;;1.20;95.19
71735;BME280;59577;52.122;5.406;2023-03-15T02:26:26;101360.75;;;1.16;95.75
71735;BME280;59577;52.122;5.406;2023-03-15T02:28:55;101367.16;;;1.15;95.75
71735;BME280;59577;52.122;5.406;2023-03-15T02:31:22;101369.28;;;1.13;95.50
71735;BME280;59577;52.122;5.406;2023-03-15T02:33:50;101360.22;;;1.09;95.84
71735;BME280;59577;52.122;5.406;2023-03-15T02:36:26;101366.94;;;1.06;95.75
71735;BME280;59577;52.122;5.406;2023-03-15T02:38:54;101373.88;;;1.02;95.80
71735;BME280;59577;52.122;5.406;2023-03-15T02:41:56;101377.09;;;0.99;95.67
71735;BME280;59577;52.122;5.406;2023-03-15T02:44:36;101382.69;;;0.98;96.05
71735;BME280;59577;52.122;5.406;2023-03-15T02:47:26;101386.41;;;0.97;96.04
71735;BME280;59577;52.122;5.406;2023-03-15T02:50:04;101392.00;;;0.95;96.46
71735;BME280;59577;52.122;5.406;2023-03-15T02:52:38;101391.22;;;0.94;96.12
71735;BME280;59577;52.122;5.406;2023-03-15T02:55:06;101399.75;;;0.91;96.00
71735;BME280;59577;52.122;5.406;2023-03-15T02:57:39;101400.00;;;0.95;96.22
71735;BME280;59577;52.122;5.406;2023-03-15T03:00:09;101413.63;;;0.99;96.45
71735;BME280;59577;52.122;5.406;2023-03-15T03:02:41;101414.66;;;1.03;96.19
71735;BME280;59577;52.122;5.406;2023-03-15T03:05:09;101420.78;;;1.03;96.22
71735;BME280;59577;52.122;5.406;2023-03-15T03:07:42;101429.03;;;1.07;96.44
71735;BME280;59577;52.122;5.406;2023-03-15T03:10:15;101427.19;;;1.02;96.06
71735;BME280;59577;52.122;5.406;2023-03-15T03:12:52;101430.91;;;1.01;96.12
71735;BME280;59577;52.122;5.406;2023-03-15T03:15:20;101435.47;;;1.01;96.38
71735;BME280;59577;52.122;5.406;2023-03-15T03:17:47;101447.44;;;0.98;96.47
71735;BME280;59577;52.122;5.406;2023-03-15T03:20:14;101456.53;;;0.97;96.23
71735;BME280;59577;52.122;5.406;2023-03-15T03:22:41;101445.31;;;0.95;96.28
71735;BME280;59577;52.122;5.406;2023-03-15T03:25:11;101453.88;;;0.92;96.37
71735;BME280;59577;52.122;5.406;2023-03-15T03:27:39;101454.94;;;0.91;96.34
71735;BME280;59577;52.122;5.406;2023-03-15T03:30:09;101456.56;;;0.87;96.33
71735;BME280;59577;52.122;5.406;2023-03-15T03:32:36;101463.47;;;0.88;96.51
71735;BME280;59577;52.122;5.406;2023-03-15T03:35:07;101464.00;;;0.85;96.48
71735;BME280;59577;52.122;5.406;2023-03-15T03:37:36;101466.97;;;0.83;96.67
71735;BME280;59577;52.122;5.406;2023-03-15T03:40:19;101467.22;;;0.82;96.79
71735;BME280;59577;52.122;5.406;2023-03-15T03:43:10;101480.28;;;0.78;96.52
71735;BME280;59577;52.122;5.406;2023-03-15T03:45:59;101477.91;;;0.77;96.63
71735;BME280;59577;52.122;5.406;2023-03-15T03:51:10;101496.81;;;0.75;96.88
71735;BME280;59577;52.122;5.406;2023-03-15T03:53:46;101496.28;;;0.73;96.53
71735;BME280;59577;52.122;5.406;2023-03-15T03:56:35;101496.03;;;0.69;96.74
71735;BME280;59577;52.122;5.406;2023-03-15T03:59:12;101504.28;;;0.68;96.96
71735;BME280;59577;52.122;5.406;2023-03-15T04:01:46;101504.81;;;0.65;97.04
71735;BME280;59577;52.122;5.406;2023-03-15T04:04:18;101505.59;;;0.65;96.68
71735;BME280;59577;52.122;5.406;2023-03-15T04:07:04;101509.63;;;0.63;96.97
71735;BME280;59577;52.122;5.406;2023-03-15T04:09:40;101503.75;;;0.61;97.18
71735;BME280;59577;52.122;5.406;2023-03-15T04:12:11;101517.59;;;0.63;96.90
71735;BME280;59577;52.122;5.406;2023-03-15T04:14:41;101518.13;;;0.65;97.24
71735;BME280;59577;52.122;5.406;2023-03-15T04:17:09;101527.44;;;0.67;97.09
71735;BME280;59577;52.122;5.406;2023-03-15T04:19:36;101532.78;;;0.72;97.32
71735;BME280;59577;52.122;5.406;2023-03-15T04:22:03;101528.78;;;0.75;96.90
71735;BME280;59577;52.122;5.406;2023-03-15T04:35:24;101551.41;;;0.67;97.27
71735;BME280;59577;52.122;5.406;2023-03-15T04:37:53;101549.06;;;0.66;97.13
71735;BME280;59577;52.122;5.406;2023-03-15T04:40:20;101566.34;;;0.63;97.44
71735;BME280;59577;52.122;5.406;2023-03-15T04:42:50;101551.72;;;0.61;96.99
71735;BME280;59577;52.122;5.406;2023-03-15T04:45:17;101561.81;;;0.59;97.15
71735;BME280;59577;52.122;5.406;2023-03-15T04:47:44;101575.38;;;0.57;97.42
71735;BME280;59577;52.122;5.406;2023-03-15T04:50:11;101566.09;;;0.54;97.12
71735;BME280;59577;52.122;5.406;2023-03-15T04:52:38;101577.25;;;0.51;97.56
71735;BME280;59577;52.122;5.406;2023-03-15T04:55:06;101573.81;;;0.51;97.33
71735;BME280;59577;52.122;5.406;2023-03-15T04:57:32;101581.78;;;0.51;97.33
71735;BME280;59577;52.122;5.406;2023-03-15T05:02:41;101587.91;;;0.46;97.15
71735;BME280;59577;52.122;5.406;2023-03-15T05:05:09;101588.44;;;0.43;97.44
71735;BME280;59577;52.122;5.406;2023-03-15T05:07:36;101588.72;;;0.42;97.48
71735;BME280;59577;52.122;5.406;2023-03-15T05:10:05;101592.44;;;0.41;97.95
71735;BME280;59577;52.122;5.406;2023-03-15T05:12:34;101600.94;;;0.37;97.66
71735;BME280;59577;52.122;5.406;2023-03-15T05:23:00;101620.38;;;0.38;98.01
71735;BME280;59577;52.122;5.406;2023-03-15T05:42:04;101644.41;;;0.64;97.36
71735;BME280;59577;52.122;5.406;2023-03-15T05:44:31;101642.56;;;0.64;97.35
71735;BME280;59577;52.122;5.406;2023-03-15T05:46:58;101643.88;;;0.62;97.27
71735;BME280;59577;52.122;5.406;2023-03-15T05:49:25;101645.75;;;0.61;97.47
71735;BME280;59577;52.122;5.406;2023-03-15T05:51:52;101647.63;;;0.61;97.27
71735;BME280;59577;52.122;5.406;2023-03-15T06:02:28;101683.03;;;0.56;97.40
71735;BME280;59577;52.122;5.406;2023-03-15T06:04:55;101689.41;;;0.55;97.16
71735;BME280;59577;52.122;5.406;2023-03-15T06:07:22;101689.41;;;0.55;97.01
71735;BME280;59577;52.122;5.406;2023-03-15T06:09:49;101700.31;;;0.53;97.38
71735;BME280;59577;52.122;5.406;2023-03-15T06:12:18;101705.91;;;0.52;96.99
71735;BME280;59577;52.122;5.406;2023-03-15T06:14:45;101712.84;;;0.53;96.87
71735;BME280;59577;52.122;5.406;2023-03-15T06:17:12;101709.41;;;0.58;97.06
71735;BME280;59577;52.122;5.406;2023-03-15T06:19:41;101715.25;;;0.60;97.22
71735;BME280;59577;52.122;5.406;2023-03-15T06:22:08;101706.53;;;0.74;97.41
71735;BME280;59577;52.122;5.406;2023-03-15T06:24:35;101707.88;;;0.92;97.25
71735;BME280;59577;52.122;5.406;2023-03-15T06:27:02;101713.22;;;1.23;96.87
71735;BME280;59577;52.122;5.406;2023-03-15T06:29:32;101720.16;;;1.24;96.62
71735;BME280;59577;52.122;5.406;2023-03-15T06:58:29;101759.63;;;10.75;80.26
71735;BME280;59577;52.122;5.406;2023-03-15T07:04:06;101765.38;;;13.85;64.51
71735;BME280;59577;52.122;5.406;2023-03-15T07:09:39;101780.81;;;16.88;53.74
71735;BME280;59577;52.122;5.406;2023-03-15T07:17:22;101793.22;;;17.13;48.90
71735;BME280;59577;52.122;5.406;2023-03-15T07:19:48;101789.94;;;17.75;47.80
71735;BME280;59577;52.122;5.406;2023-03-15T07:22:22;101800.94;;;18.89;45.42
71735;BME280;59577;52.122;5.406;2023-03-15T07:24:48;101790.44;;;19.16;43.63
71735;BME280;59577;52.122;5.406;2023-03-15T07:27:15;101801.13;;;19.40;42.38
71735;BME280;59577;52.122;5.406;2023-03-15T07:29:44;101800.31;;;19.39;41.40
71735;BME280;59577;52.122;5.406;2023-03-15T07:32:11;101800.47;;;18.80;41.25
71735;BME280;59577;52.122;5.406;2023-03-15T07:34:37;101811.22;;;19.10;40.54
71735;BME280;59577;52.122;5.406;2023-03-15T07:37:04;101807.06;;;20.14;39.92
71735;BME280;59577;52.122;5.406;2023-03-15T07:39:33;101813.81;;;21.26;37.23
71735;BME280;59577;52.122;5.406;2023-03-15T07:42:02;101819.25;;;19.87;39.33
71735;BME280;59577;52.122;5.406;2023-03-15T07:44:28;101828.16;;;19.41;39.14
71735;BME280;59577;52.122;5.406;2023-03-15T07:46:55;101821.34;;;18.95;41.14
71735;BME280;59577;52.122;5.406;2023-03-15T07:49:24;101834.16;;;20.19;40.39
71735;BME280;59577;52.122;5.406;2023-03-15T07:51:51;101834.81;;;21.72;37.01
71735;BME280;59577;52.122;5.406;2023-03-15T07:54:18;101832.56;;;22.54;35.15
71735;BME280;59577;52.122;5.406;2023-03-15T07:56:45;101830.22;;;23.21;33.17
71735;BME280;59577;52.122;5.406;2023-03-15T07:59:12;101840.78;;;22.96;34.92
71735;BME280;59577;52.122;5.406;2023-03-15T08:01:38;101846.94;;;23.11;35.78
71735;BME280;59577;52.122;5.406;2023-03-15T08:04:05;101850.50;;;23.38;32.61
71735;BME280;59577;52.122;5.406;2023-03-15T08:06:31;101849.69;;;23.41;32.53
71735;BME280;59577;52.122;5.406;2023-03-15T08:08:58;101853.19;;;23.73;34.00
71735;BME280;59577;52.122;5.406;2023-03-15T08:11:26;101863.41;;;23.76;33.34
71735;BME280;59577;52.122;5.406;2023-03-15T08:13:53;101863.69;;;23.85;33.92
71735;BME280;59577;52.122;5.406;2023-03-15T08:16:19;101865.09;;;23.97;34.74
71735;BME280;59577;52.122;5.406;2023-03-15T08:18:46;101866.56;;;23.47;37.09
71735;BME280;59577;52.122;5.406;2023-03-15T08:21:12;101864.13;;;23.53;34.02
71735;BME280;59577;52.122;5.406;2023-03-15T08:23:38;101866.06;;;23.56;31.74
71735;BME280;59577;52.122;5.406;2023-03-15T08:26:08;101865.41;;;23.44;32.04
71735;BME280;59577;52.122;5.406;2023-03-15T08:28:35;101871.25;;;23.23;33.30
71735;BME280;59577;52.122;5.406;2023-03-15T08:31:06;101874.06;;;23.19;32.88
71735;BME280;59577;52.122;5.406;2023-03-15T08:33:33;101880.72;;;23.22;30.50
71735;BME280;59577;52.122;5.406;2023-03-15T08:35:59;101878.81;;;23.46;32.28
71735;BME280;59577;52.122;5.406;2023-03-15T08:38:40;101884.09;;;23.37;32.76
71735;BME280;59577;52.122;5.406;2023-03-15T08:41:07;101883.97;;;23.44;33.07
71735;BME280;59577;52.122;5.406;2023-03-15T08:43:44;101898.16;;;22.81;33.44
71735;BME280;59577;52.122;5.406;2023-03-15T08:59:31;101899.38;;;21.75;36.15
71735;BME280;59577;52.122;5.406;2023-03-15T09:02:01;101901.19;;;21.22;33.87
71735;BME280;59577;52.122;5.406;2023-03-15T09:04:29;101906.72;;;21.15;36.21
71735;BME280;59577;52.122;5.406;2023-03-15T09:07:01;101903.56;;;21.20;35.78
71735;BME280;59577;52.122;5.406;2023-03-15T09:09:33;101907.91;;;21.10;34.31
71735;BME280;59577;52.122;5.406;2023-03-15T09:12:02;101912.34;;;20.18;35.34
71735;BME280;59577;52.122;5.406;2023-03-15T09:14:36;101909.00;;;19.47;35.44
71735;BME280;59577;52.122;5.406;2023-03-15T09:17:03;101912.81;;;19.21;34.38
71735;BME280;59577;52.122;5.406;2023-03-15T09:19:30;101914.88;;;19.42;38.08
71735;BME280;59577;52.122;5.406;2023-03-15T09:22:00;101911.78;;;19.62;36.44
71735;BME280;59577;52.122;5.406;2023-03-15T09:24:43;101905.25;;;20.35;40.03
71735;BME280;59577;52.122;5.406;2023-03-15T09:27:10;101904.88;;;20.69;36.73
71735;BME280;59577;52.122;5.406;2023-03-15T09:29:37;101904.84;;;20.58;35.35
71735;BME280;59577;52.122;5.406;2023-03-15T09:32:04;101898.59;;;20.28;36.48
71735;BME280;59577;52.122;5.406;2023-03-15T09:34:31;101905.25;;;20.13;36.77
71735;BME280;59577;52.122;5.406;2023-03-15T09:37:07;101911.53;;;20.14;36.66
71735;BME280;59577;52.122;5.406;2023-03-15T09:39:34;101909.56;;;20.36;35.69
71735;BME280;59577;52.122;5.406;2023-03-15T09:42:01;101909.16;;;20.01;36.34
71735;BME280;59577;52.122;5.406;2023-03-15T09:44:49;101911.13;;;20.04;36.76
71735;BME280;59577;52.122;5.406;2023-03-15T09:47:39;101918.00;;;19.41;37.28
71735;BME280;59577;52.122;5.406;2023-03-15T09:50:50;101917.25;;;19.51;37.76
71735;BME280;59577;52.122;5.406;2023-03-15T09:53:29;101921.22;;;19.64;37.04
71735;BME280;59577;52.122;5.406;2023-03-15T09:55:58;101920.97;;;20.09;35.36
71735;BME280;59577;52.122;5.406;2023-03-15T09:58:28;101921.78;;;20.38;35.12
71735;BME280;59577;52.122;5.406;2023-03-15T10:01:04;101913.88;;;20.04;36.52
71735;BME280;59577;52.122;5.406;2023-03-15T10:03:46;101920.34;;;19.42;34.88
71735;BME280;59577;52.122;5.406;2023-03-15T10:06:15;101921.75;;;19.04;33.64
71735;BME280;59577;52.122;5.406;2023-03-15T10:08:44;101915.91;;;19.09;35.83
71735;BME280;59577;52.122;5.406;2023-03-15T10:13:57;101914.50;;;18.26;37.65
71735;BME280;59577;52.122;5.406;2023-03-15T10:16:42;101910.69;;;17.96;36.27
71735;BME280;59577;52.122;5.406;2023-03-15T10:19:28;101913.47;;;17.32;35.80
71735;BME280;59577;52.122;5.406;2023-03-15T10:22:22;101900.31;;;16.84;37.63
71735;BME280;59577;52.122;5.406;2023-03-15T10:27:31;101899.66;;;17.25;37.74
71735;BME280;59577;52.122;5.406;2023-03-15T10:30:00;101910.53;;;17.18;36.29
71735;BME280;59577;52.122;5.406;2023-03-15T10:32:33;101910.66;;;16.98;37.30
71735;BME280;59577;52.122;5.406;2023-03-15T10:35:13;101909.41;;;16.42;35.73
71735;BME280;59577;52.122;5.406;2023-03-15T10:37:41;101919.34;;;15.69;35.57
71735;BME280;59577;52.122;5.406;2023-03-15T10:40:08;101927.63;;;14.82;35.74
71735;BME280;59577;52.122;5.406;2023-03-15T10:42:43;101932.59;;;14.60;36.72
71735;BME280;59577;52.122;5.406;2023-03-15T10:45:28;101930.53;;;14.89;38.04
71735;BME280;59577;52.122;5.406;2023-03-15T10:47:55;101939.94;;;14.76;36.90
71735;BME280;59577;52.122;5.406;2023-03-15T10:50:30;101945.13;;;14.65;38.27
71735;BME280;59577;52.122;5.406;2023-03-15T10:53:10;101936.06;;;14.93;38.11
71735;BME280;59577;52.122;5.406;2023-03-15T10:55:44;101942.13;;;15.02;38.90
71735;BME280;59577;52.122;5.406;2023-03-15T11:03:26;101957.38;;;13.83;39.14
71735;BME280;59577;52.122;5.406;2023-03-15T11:05:55;101958.91;;;13.96;40.19
71735;BME280;59577;52.122;5.406;2023-03-15T11:08:25;101960.50;;;14.57;39.41
71735;BME280;59577;52.122;5.406;2023-03-15T11:11:04;101967.84;;;14.69;36.86
71735;BME280;59577;52.122;5.406;2023-03-15T11:13:54;101979.25;;;14.30;36.58
71735;BME280;59577;52.122;5.406;2023-03-15T11:16:23;101978.50;;;14.02;37.63
71735;BME280;59577;52.122;5.406;2023-03-15T11:19:03;101983.28;;;14.65;36.88
71735;BME280;59577;52.122;5.406;2023-03-15T11:21:41;101987.63;;;13.28;37.88
71735;BME280;59577;52.122;5.406;2023-03-15T11:24:22;101985.16;;;12.98;38.06
71735;BME280;59577;52.122;5.406;2023-03-15T11:26:51;101980.44;;;12.37;41.71
71735;BME280;59577;52.122;5.406;2023-03-15T11:29:32;101987.31;;;12.81;40.38
71735;BME280;59577;52.122;5.406;2023-03-15T11:32:14;101979.81;;;13.27;41.20
71735;BME280;59577;52.122;5.406;2023-03-15T11:34:47;101984.84;;;14.50;40.56
71735;BME280;59577;52.122;5.406;2023-03-15T11:37:25;101982.03;;;15.10;38.75
71735;BME280;59577;52.122;5.406;2023-03-15T11:40:02;101980.84;;;14.92;36.46
71735;BME280;59577;52.122;5.406;2023-03-15T11:42:55;101973.78;;;14.91;39.02
71735;BME280;59577;52.122;5.406;2023-03-15T11:45:39;101963.72;;;15.46;37.38
71735;BME280;59577;52.122;5.406;2023-03-15T11:48:25;101965.69;;;15.65;36.70
71735;BME280;59577;52.122;5.406;2023-03-15T11:50:54;101965.03;;;15.52;34.63
71735;BME280;59577;52.122;5.406;2023-03-15T11:53:25;101959.75;;;15.79;35.65
71735;BME280;59577;52.122;5.406;2023-03-15T11:55:55;101948.84;;;16.22;35.66
71735;BME280;59577;52.122;5.406;2023-03-15T11:58:34;101962.03;;;15.22;33.47
71735;BME280;59577;52.122;5.406;2023-03-15T12:01:10;101956.44;;;14.35;34.37
71735;BME280;59577;52.122;5.406;2023-03-15T12:03:50;101959.09;;;13.22;37.52
71735;BME280;59577;52.122;5.406;2023-03-15T12:08:51;101965.06;;;13.52;36.68
71735;BME280;59577;52.122;5.406;2023-03-15T12:16:26;101961.59;;;13.27;37.52
71735;BME280;59577;52.122;5.406;2023-03-15T12:19:19;101963.97;;;12.92;39.99
71735;BME280;59577;52.122;5.406;2023-03-15T12:21:52;101963.06;;;13.00;39.17
71735;BME280;59577;52.122;5.406;2023-03-15T12:24:35;101974.59;;;13.22;39.65
71735;BME280;59577;52.122;5.406;2023-03-15T12:27:05;101974.25;;;13.23;37.49
71735;BME280;59577;52.122;5.406;2023-03-15T12:29:40;101972.22;;;12.58;36.64
71735;BME280;59577;52.122;5.406;2023-03-15T12:32:13;101973.97;;;12.42;38.85
71735;BME280;59577;52.122;5.406;2023-03-15T12:37:23;101966.75;;;12.34;40.40
71735;BME280;59577;52.122;5.406;2023-03-15T12:53:18;101958.63;;;11.28;38.49
71735;BME280;59577;52.122;5.406;2023-03-15T12:55:51;101959.63;;;10.94;39.43
71735;BME280;59577;52.122;5.406;2023-03-15T12:58:34;101966.16;;;11.23;41.12
71735;BME280;59577;52.122;5.406;2023-03-15T13:01:04;101969.25;;;11.13;39.45
71735;BME280;59577;52.122;5.406;2023-03-15T13:03:34;101974.16;;;10.81;42.39
71735;BME280;59577;52.122;5.406;2023-03-15T13:09:10;101967.66;;;11.12;42.49
71735;BME280;59577;52.122;5.406;2023-03-15T13:11:56;101973.88;;;11.12;42.25
71735;BME280;59577;52.122;5.406;2023-03-15T13:14:53;101958.78;;;11.32;43.38
71735;BME280;59577;52.122;5.406;2023-03-15T13:17:46;101958.63;;;11.28;41.18
71735;BME280;59577;52.122;5.406;2023-03-15T13:20:41;101954.06;;;11.20;42.28
71735;BME280;59577;52.122;5.406;2023-03-15T13:23:20;101957.13;;;11.40;43.55
71735;BME280;59577;52.122;5.406;2023-03-15T13:26:16;101954.69;;;11.68;43.15
71735;BME280;59577;52.122;5.406;2023-03-15T13:29:15;101954.97;;;11.75;41.80
71735;BME280;59577;52.122;5.406;2023-03-15T13:31:45;101955.63;;;11.72;41.59
71735;BME280;59577;52.122;5.406;2023-03-15T13:34:18;101963.94;;;11.88;41.57
71735;BME280;59577;52.122;5.406;2023-03-15T13:36:53;101966.16;;;11.95;40.29
71735;BME280;59577;52.122;5.406;2023-03-15T13:39:25;101967.88;;;11.78;40.73
71735;BME280;59577;52.122;5.406;2023-03-15T13:42:04;101962.91;;;11.59;41.35
71735;BME280;59577;52.122;5.406;2023-03-15T13:44:32;101972.25;;;11.20;41.79
71735;BME280;59577;52.122;5.406;2023-03-15T13:46:59;101973.81;;;10.91;41.51
71735;BME280;59577;52.122;5.406;2023-03-15T13:49:31;101973.31;;;10.59;40.89
71735;BME280;59577;52.122;5.406;2023-03-15T13:51:58;101979.56;;;10.42;41.73
71735;BME280;59577;52.122;5.406;2023-03-15T13:54:30;101968.25;;;10.40;42.61
71735;BME280;59577;52.122;5.406;2023-03-15T13:57:33;101975.72;;;10.43;41.55
71735;BME280;59577;52.122;5.406;2023-03-15T14:00:03;101979.81;;;10.58;44.53
71735;BME280;59577;52.122;5.406;2023-03-15T14:05:10;101980.56;;;10.76;43.31
71735;BME280;59577;52.122;5.406;2023-03-15T14:07:42;101980.88;;;10.83;44.23
71735;BME280;59577;52.122;5.406;2023-03-15T14:10:30;101982.47;;;10.76;41.90
71735;BME280;59577;52.122;5.406;2023-03-15T14:13:14;101983.84;;;10.34;42.26
71735;BME280;59577;52.122;5.406;2023-03-15T14:15:42;101986.72;;;10.38;43.11
71735;BME280;59577;52.122;5.406;2023-03-15T14:18:14;101993.69;;;10.57;43.43
71735;BME280;59577;52.122;5.406;2023-03-15T14:21:12;101988.63;;;10.46;42.60
71735;BME280;59577;52.122;5.406;2023-03-15T14:23:41;101990.06;;;10.44;42.39
71735;BME280;59577;52.122;5.406;2023-03-15T14:26:22;101985.09;;;10.54;42.76
71735;BME280;59577;52.122;5.406;2023-03-15T14:29:04;101990.94;;;10.65;43.16
71735;BME280;59577;52.122;5.406;2023-03-15T14:31:40;101992.78;;;10.35;42.56
71735;BME280;59577;52.122;5.406;2023-03-15T14:34:23;101993.38;;;10.49;42.05
71735;BME280;59577;52.122;5.406;2023-03-15T14:36:50;101993.25;;;10.28;42.01
71735;BME280;59577;52.122;5.406;2023-03-15T14:41:50;101986.09;;;9.97;40.77
71735;BME280;59577;52.122;5.406;2023-03-15T14:44:17;101983.56;;;9.92;42.10
71735;BME280;59577;52.122;5.406;2023-03-15T14:46:43;101973.38;;;9.98;42.18
71735;BME280;59577;52.122;5.406;2023-03-15T14:49:20;101972.25;;;10.08;41.98
71735;BME280;59577;52.122;5.406;2023-03-15T14:51:52;101975.75;;;10.08;42.12
71735;BME280;59577;52.122;5.406;2023-03-15T14:54:20;101977.66;;;10.08;44.30
71735;BME280;59577;52.122;5.406;2023-03-15T14:56:47;101982.28;;;9.98;43.07
71735;BME280;59577;52.122;5.406;2023-03-15T14:59:13;101980.84;;;9.75;42.08
71735;BME280;59577;52.122;5.406;2023-03-15T15:01:41;101977.66;;;9.55;42.21
71735;BME280;59577;52.122;5.406;2023-03-15T15:04:13;101972.75;;;9.66;43.80
71735;BME280;59577;52.122;5.406;2023-03-15T15:06:39;101972.59;;;9.80;44.49
71735;BME280;59577;52.122;5.406;2023-03-15T15:09:22;101966.88;;;9.73;42.84
71735;BME280;59577;52.122;5.406;2023-03-15T15:11:50;101968.28;;;9.62;44.60
71735;BME280;59577;52.122;5.406;2023-03-15T15:14:21;101967.50;;;9.61;44.75
71735;BME280;59577;52.122;5.406;2023-03-15T15:16:51;101963.03;;;9.65;44.53
71735;BME280;59577;52.122;5.406;2023-03-15T15:19:18;101970.03;;;9.57;43.78
71735;BME280;59577;52.122;5.406;2023-03-15T15:21:44;101961.13;;;9.57;45.13
71735;BME280;59577;52.122;5.406;2023-03-15T15:24:14;101962.25;;;9.65;45.65
71735;BME280;59577;52.122;5.406;2023-03-15T15:26:44;101960.97;;;9.62;43.62
71735;BME280;59577;52.122;5.406;2023-03-15T15:29:14;101954.13;;;9.47;43.65
71735;BME280;59577;52.122;5.406;2023-03-15T15:31:42;101948.38;;;9.22;43.47
71735;BME280;59577;52.122;5.406;2023-03-15T15:34:10;101942.63;;;9.15;42.74
71735;BME280;59577;52.122;5.406;2023-03-15T15:36:39;101937.38;;;9.10;43.86
71735;BME280;59577;52.122;5.406;2023-03-15T15:41:44;101946.09;;;9.07;43.87
71735;BME280;59577;52.122;5.406;2023-03-15T15:44:17;101933.69;;;9.06;44.75
71735;BME280;59577;52.122;5.406;2023-03-15T15:46:44;101933.34;;;8.99;44.48
71735;BME280;59577;52.122;5.406;2023-03-15T15:49:13;101933.81;;;8.92;44.09
71735;BME280;59577;52.122;5.406;2023-03-15T15:51:42;101933.44;;;8.76;44.33
71735;BME280;59577;52.122;5.406;2023-03-15T15:54:13;101928.53;;;8.78;44.81